sensor_id;sensor_type;location;lat;lon;timestamp;pressure;altitude;pressure_sealevel;temperature;humidity
28167;BME280;15455;53.376;-6.262;2023-04-07T00:01:45;101836.16;;;2.34;100.00
28167;BME280;15455;53.376;-6.262;2023-04-07T00:04:30;101840.94;;;2.26;100.00
28167;BME280;15455;53.376;-6.262;2023-04-07T00:07:16;101834.59;;;2.19;100.00
28167;BME280;15455;53.376;-6.262;2023-04-07T00:10:02;101831.03;;;1.99;100.00
28167;BME280;15455;53.376;-6.262;2023-04-07T00:12:47;101827.34;;;1.94;100.00
28167;BME280;15455;53.376;-6.262;2023-04-07T00:15:33;101834.44;;;1.98;100.00
28167;BME280;15455;53.376;-6.262;2023-04-07T00:18:18;101835.59;;;2.05;100.00
28167;BME280;15455;53.376;-6.262;2023-04-07T00:21:04;101841.31;;;1.99;100.00
28167;BME280;15455;53.376;-6.262;2023-04-07T00:23:49;101837.16;;;2.01;100.00
28167;BME280;15455;53.376;-6.262;2023-04-07T00:26:35;101844.38;;;2.08;100.00
28167;BME280;15455;53.376;-6.262;2023-04-07T00:29:20;101843.41;;;2.06;100.00
28167;BME280;15455;53.376;-6.262;2023-04-07T00:32:05;101842.22;;;2.00;100.00
28167;BME280;15455;53.376;-6.262;2023-04-07T00:34:51;101840.66;;;1.85;100.00
28167;BME280;15455;53.376;-6.262;2023-04-07T00:37:36;101838.63;;;1.63;100.00
28167;BME280;15455;53.376;-6.262;2023-04-07T00:40:22;101830.75;;;1.60;100.00
28167;BME280;15455;53.376;-6.262;2023-04-07T00:43:08;101830.06;;;1.63;100.00
28167;BME280;15455;53.376;-6.262;2023-04-07T00:45:53;101828.28;;;1.62;100.00
28167;BME280;15455;53.376;-6.262;2023-04-07T00:48:39;101835.56;;;1.70;100.00
28167;BME280;15455;53.376;-6.262;2023-04-07T00:51:25;101832.69;;;1.64;100.00
28167;BME280;15455;53.376;-6.262;2023-04-07T00:54:11;101824.44;;;1.53;100.00
28167;BME280;15455;53.376;-6.262;2023-04-07T00:56:57;101825.66;;;1.44;100.00
28167;BME280;15455;53.376;-6.262;2023-04-07T00:59:42;101826.78;;;1.32;100.00
28167;BME280;15455;53.376;-6.262;2023-04-07T01:02:35;101827.41;;;1.28;100.00
28167;BME280;15455;53.376;-6.262;2023-04-07T01:05:37;101829.34;;;1.16;100.00
28167;BME280;15455;53.376;-6.262;2023-04-07T01:08:34;101832.47;;;1.10;100.00
28167;BME280;15455;53.376;-6.262;2023-04-07T01:14:50;101827.00;;;1.20;100.00
28167;BME280;15455;53.376;-6.262;2023-04-07T01:18:08;101836.25;;;1.33;100.00
28167;BME280;15455;53.376;-6.262;2023-04-07T01:21:01;101826.44;;;1.26;100.00
28167;BME280;15455;53.376;-6.262;2023-04-07T01:23:50;101824.59;;;1.07;100.00
28167;BME280;15455;53.376;-6.262;2023-04-07T01:26:37;101829.81;;;1.09;100.00
28167;BME280;15455;53.376;-6.262;2023-04-07T01:32:17;101835.34;;;1.00;100.00
28167;BME280;15455;53.376;-6.262;2023-04-07T01:35:04;101828.03;;;0.91;100.00
28167;BME280;15455;53.376;-6.262;2023-04-07T01:37:54;101819.19;;;1.02;100.00
28167;BME280;15455;53.376;-6.262;2023-04-07T01:40:43;101826.03;;;1.18;100.00
28167;BME280;15455;53.376;-6.262;2023-04-07T01:43:30;101828.75;;;1.05;100.00
28167;BME280;15455;53.376;-6.262;2023-04-07T01:46:16;101823.91;;;0.95;100.00
28167;BME280;15455;53.376;-6.262;2023-04-07T01:49:02;101825.19;;;0.86;100.00
28167;BME280;15455;53.376;-6.262;2023-04-07T01:51:49;101821.78;;;0.71;100.00
28167;BME280;15455;53.376;-6.262;2023-04-07T01:54:36;101818.38;;;0.56;100.00
28167;BME280;15455;53.376;-6.262;2023-04-07T01:57:21;101818.03;;;0.49;100.00
28167;BME280;15455;53.376;-6.262;2023-04-07T02:00:11;101825.28;;;0.42;100.00
28167;BME280;15455;53.376;-6.262;2023-04-07T02:03:19;101817.63;;;0.27;100.00
28167;BME280;15455;53.376;-6.262;2023-04-07T02:06:08;101816.63;;;0.40;100.00
28167;BME280;15455;53.376;-6.262;2023-04-07T02:09:03;101819.16;;;0.55;100.00
28167;BME280;15455;53.376;-6.262;2023-04-07T02:11:51;101822.72;;;0.57;100.00
28167;BME280;15455;53.376;-6.262;2023-04-07T02:14:41;101813.53;;;0.45;100.00
28167;BME280;15455;53.376;-6.262;2023-04-07T02:17:31;101815.00;;;0.42;100.00
28167;BME280;15455;53.376;-6.262;2023-04-07T02:20:19;101819.69;;;0.49;100.00
28167;BME280;15455;53.376;-6.262;2023-04-07T02:23:09;101816.38;;;0.35;100.00
28167;BME280;15455;53.376;-6.262;2023-04-07T02:25:56;101814.69;;;0.36;100.00
28167;BME280;15455;53.376;-6.262;2023-04-07T02:28:42;101816.28;;;0.33;100.00
28167;BME280;15455;53.376;-6.262;2023-04-07T02:31:27;101814.56;;;0.49;100.00
28167;BME280;15455;53.376;-6.262;2023-04-07T02:34:13;101825.75;;;0.49;100.00
28167;BME280;15455;53.376;-6.262;2023-04-07T02:36:58;101825.81;;;0.51;100.00
28167;BME280;15455;53.376;-6.262;2023-04-07T02:39:44;101829.44;;;0.55;100.00
28167;BME280;15455;53.376;-6.262;2023-04-07T02:42:30;101821.28;;;0.62;100.00
28167;BME280;15455;53.376;-6.262;2023-04-07T02:45:16;101830.38;;;0.72;100.00
28167;BME280;15455;53.376;-6.262;2023-04-07T02:48:01;101833.09;;;0.75;100.00
28167;BME280;15455;53.376;-6.262;2023-04-07T02:50:46;101826.31;;;0.60;100.00
28167;BME280;15455;53.376;-6.262;2023-04-07T02:53:32;101818.28;;;0.54;100.00
28167;BME280;15455;53.376;-6.262;2023-04-07T02:56:17;101816.88;;;0.44;100.00
28167;BME280;15455;53.376;-6.262;2023-04-07T02:59:03;101817.25;;;0.36;100.00
28167;BME280;15455;53.376;-6.262;2023-04-07T03:01:53;101824.63;;;0.29;100.00
28167;BME280;15455;53.376;-6.262;2023-04-07T03:04:39;101815.31;;;0.16;100.00
28167;BME280;15455;53.376;-6.262;2023-04-07T03:07:24;101813.13;;;0.08;100.00
28167;BME280;15455;53.376;-6.262;2023-04-07T03:10:13;101804.88;;;-0.02;100.00
28167;BME280;15455;53.376;-6.262;2023-04-07T03:12:58;101809.22;;;-0.01;100.00
28167;BME280;15455;53.376;-6.262;2023-04-07T03:15:45;101802.06;;;0.09;100.00
28167;BME280;15455;53.376;-6.262;2023-04-07T03:18:33;101817.56;;;0.10;100.00
28167;BME280;15455;53.376;-6.262;2023-04-07T03:21:20;101811.09;;;0.02;100.00
28167;BME280;15455;53.376;-6.262;2023-04-07T03:24:06;101803.13;;;-0.03;100.00
28167;BME280;15455;53.376;-6.262;2023-04-07T03:26:51;101817.25;;;0.06;100.00
28167;BME280;15455;53.376;-6.262;2023-04-07T03:29:49;101814.34;;;0.14;100.00
28167;BME280;15455;53.376;-6.262;2023-04-07T03:32:36;101818.16;;;0.06;100.00
28167;BME280;15455;53.376;-6.262;2023-04-07T03:35:21;101814.53;;;0.03;100.00
28167;BME280;15455;53.376;-6.262;2023-04-07T03:38:07;101807.25;;;-0.05;100.00
28167;BME280;15455;53.376;-6.262;2023-04-07T03:40:53;101810.81;;;-0.18;100.00
28167;BME280;15455;53.376;-6.262;2023-04-07T03:43:39;101813.81;;;-0.25;100.00
28167;BME280;15455;53.376;-6.262;2023-04-07T03:46:24;101811.59;;;-0.33;100.00
28167;BME280;15455;53.376;-6.262;2023-04-07T03:49:13;101813.44;;;-0.31;100.00
28167;BME280;15455;53.376;-6.262;2023-04-07T03:51:59;101819.13;;;-0.22;100.00
28167;BME280;15455;53.376;-6.262;2023-04-07T03:54:45;101817.44;;;-0.21;100.00
28167;BME280;15455;53.376;-6.262;2023-04-07T03:57:31;101811.06;;;-0.28;100.00
28167;BME280;15455;53.376;-6.262;2023-04-07T04:00:17;101808.13;;;-0.34;100.00
28167;BME280;15455;53.376;-6.262;2023-04-07T04:03:18;101805.84;;;-0.29;100.00
28167;BME280;15455;53.376;-6.262;2023-04-07T04:06:28;101810.19;;;-0.13;100.00
28167;BME280;15455;53.376;-6.262;2023-04-07T04:09:22;101811.63;;;-0.19;100.00
28167;BME280;15455;53.376;-6.262;2023-04-07T04:12:07;101803.63;;;-0.23;100.00
28167;BME280;15455;53.376;-6.262;2023-04-07T04:14:59;101809.94;;;-0.33;100.00
28167;BME280;15455;53.376;-6.262;2023-04-07T04:17:45;101802.13;;;-0.34;100.00
28167;BME280;15455;53.376;-6.262;2023-04-07T04:20:32;101805.22;;;-0.25;100.00
28167;BME280;15455;53.376;-6.262;2023-04-07T04:23:20;101804.53;;;-0.23;100.00
28167;BME280;15455;53.376;-6.262;2023-04-07T04:26:09;101806.75;;;-0.29;100.00
28167;BME280;15455;53.376;-6.262;2023-04-07T04:28:57;101810.81;;;-0.18;100.00
28167;BME280;15455;53.376;-6.262;2023-04-07T04:31:42;101801.63;;;-0.14;100.00
28167;BME280;15455;53.376;-6.262;2023-04-07T04:34:28;101805.31;;;-0.24;100.00
28167;BME280;15455;53.376;-6.262;2023-04-07T04:37:14;101804.97;;;-0.30;100.00
28167;BME280;15455;53.376;-6.262;2023-04-07T04:40:03;101806.28;;;-0.37;100.00
28167;BME280;15455;53.376;-6.262;2023-04-07T04:42:49;101805.41;;;-0.22;100.00
28167;BME280;15455;53.376;-6.262;2023-04-07T04:45:37;101814.09;;;-0.05;100.00
28167;BME280;15455;53.376;-6.262;2023-04-07T04:48:24;101808.19;;;-0.04;100.00
28167;BME280;15455;53.376;-6.262;2023-04-07T04:51:09;101808.31;;;-0.16;100.00
28167;BME280;15455;53.376;-6.262;2023-04-07T04:53:58;101809.84;;;-0.20;100.00
28167;BME280;15455;53.376;-6.262;2023-04-07T04:56:45;101806.84;;;-0.27;100.00
28167;BME280;15455;53.376;-6.262;2023-04-07T04:59:31;101807.09;;;-0.23;100.00
28167;BME280;15455;53.376;-6.262;2023-04-07T05:02:20;101809.41;;;-0.27;100.00
28167;BME280;15455;53.376;-6.262;2023-04-07T05:05:07;101808.13;;;-0.34;100.00
28167;BME280;15455;53.376;-6.262;2023-04-07T05:07:53;101802.56;;;-0.42;100.00
28167;BME280;15455;53.376;-6.262;2023-04-07T05:10:39;101798.94;;;-0.45;100.00
28167;BME280;15455;53.376;-6.262;2023-04-07T05:13:29;101800.88;;;-0.56;100.00
28167;BME280;15455;53.376;-6.262;2023-04-07T05:16:18;101803.34;;;-0.58;100.00
28167;BME280;15455;53.376;-6.262;2023-04-07T05:19:05;101804.84;;;-0.46;100.00
28167;BME280;15455;53.376;-6.262;2023-04-07T05:21:50;101807.63;;;-0.43;100.00
28167;BME280;15455;53.376;-6.262;2023-04-07T05:24:39;101809.63;;;-0.38;100.00
28167;BME280;15455;53.376;-6.262;2023-04-07T05:27:24;101819.66;;;-0.27;100.00
28167;BME280;15455;53.376;-6.262;2023-04-07T05:30:14;101820.63;;;-0.25;100.00
28167;BME280;15455;53.376;-6.262;2023-04-07T05:33:00;101825.06;;;-0.23;100.00
28167;BME280;15455;53.376;-6.262;2023-04-07T05:36:09;101822.06;;;-0.15;100.00
28167;BME280;15455;53.376;-6.262;2023-04-07T05:38:58;101833.00;;;-0.03;100.00
28167;BME280;15455;53.376;-6.262;2023-04-07T05:41:44;101835.88;;;0.02;100.00
28167;BME280;15455;53.376;-6.262;2023-04-07T05:44:31;101830.72;;;-0.13;100.00
28167;BME280;15455;53.376;-6.262;2023-04-07T05:47:17;101830.28;;;-0.21;100.00
28167;BME280;15455;53.376;-6.262;2023-04-07T05:50:03;101836.66;;;-0.14;100.00
28167;BME280;15455;53.376;-6.262;2023-04-07T05:52:51;101834.28;;;-0.11;100.00
28167;BME280;15455;53.376;-6.262;2023-04-07T05:55:43;101835.84;;;-0.13;100.00
28167;BME280;15455;53.376;-6.262;2023-04-07T05:58:42;101826.19;;;-0.18;100.00
28167;BME280;15455;53.376;-6.262;2023-04-07T06:01:29;101834.28;;;-0.11;100.00
28167;BME280;15455;53.376;-6.262;2023-04-07T06:04:15;101845.22;;;0.01;100.00
28167;BME280;15455;53.376;-6.262;2023-04-07T06:07:02;101841.19;;;0.05;100.00
28167;BME280;15455;53.376;-6.262;2023-04-07T06:09:47;101840.75;;;0.12;100.00
28167;BME280;15455;53.376;-6.262;2023-04-07T06:12:33;101843.38;;;0.28;100.00
28167;BME280;15455;53.376;-6.262;2023-04-07T06:15:18;101844.72;;;0.37;100.00
28167;BME280;15455;53.376;-6.262;2023-04-07T06:18:04;101846.03;;;0.45;100.00
28167;BME280;15455;53.376;-6.262;2023-04-07T06:20:50;101847.94;;;0.49;100.00
28167;BME280;15455;53.376;-6.262;2023-04-07T06:23:35;101856.81;;;0.54;100.00
28167;BME280;15455;53.376;-6.262;2023-04-07T06:26:24;101858.31;;;0.65;100.00
28167;BME280;15455;53.376;-6.262;2023-04-07T06:29:13;101857.03;;;0.74;100.00
28167;BME280;15455;53.376;-6.262;2023-04-07T06:31:59;101860.91;;;0.82;100.00
28167;BME280;15455;53.376;-6.262;2023-04-07T06:34:45;101854.94;;;0.98;100.00
28167;BME280;15455;53.376;-6.262;2023-04-07T06:37:32;101854.00;;;1.12;100.00
28167;BME280;15455;53.376;-6.262;2023-04-07T06:40:18;101866.81;;;1.27;100.00
28167;BME280;15455;53.376;-6.262;2023-04-07T06:43:03;101869.69;;;1.33;100.00
28167;BME280;15455;53.376;-6.262;2023-04-07T06:46:02;101864.06;;;1.41;100.00
28167;BME280;15455;53.376;-6.262;2023-04-07T06:48:48;101871.16;;;1.45;100.00
28167;BME280;15455;53.376;-6.262;2023-04-07T06:51:33;101869.59;;;1.48;100.00
28167;BME280;15455;53.376;-6.262;2023-04-07T06:54:18;101875.16;;;1.72;100.00
28167;BME280;15455;53.376;-6.262;2023-04-07T06:57:04;101869.91;;;1.87;100.00
28167;BME280;15455;53.376;-6.262;2023-04-07T06:59:55;101869.03;;;1.87;100.00
28167;BME280;15455;53.376;-6.262;2023-04-07T07:02:41;101877.13;;;1.95;100.00
28167;BME280;15455;53.376;-6.262;2023-04-07T07:05:27;101876.72;;;2.03;100.00
28167;BME280;15455;53.376;-6.262;2023-04-07T07:08:12;101875.78;;;2.19;100.00
28167;BME280;15455;53.376;-6.262;2023-04-07T07:10:58;101883.06;;;2.45;100.00
28167;BME280;15455;53.376;-6.262;2023-04-07T07:13:44;101882.25;;;2.64;100.00
28167;BME280;15455;53.376;-6.262;2023-04-07T07:16:29;101890.88;;;2.82;100.00
28167;BME280;15455;53.376;-6.262;2023-04-07T07:19:15;101898.66;;;3.02;100.00
28167;BME280;15455;53.376;-6.262;2023-04-07T07:22:01;101899.59;;;3.22;100.00
28167;BME280;15455;53.376;-6.262;2023-04-07T07:24:49;101899.38;;;3.35;100.00
28167;BME280;15455;53.376;-6.262;2023-04-07T07:27:35;101906.31;;;3.56;100.00
28167;BME280;15455;53.376;-6.262;2023-04-07T07:30:21;101902.22;;;3.80;100.00
28167;BME280;15455;53.376;-6.262;2023-04-07T07:33:06;101906.19;;;4.13;100.00
28167;BME280;15455;53.376;-6.262;2023-04-07T07:35:52;101908.06;;;4.37;100.00
28167;BME280;15455;53.376;-6.262;2023-04-07T07:38:38;101905.38;;;4.56;100.00
28167;BME280;15455;53.376;-6.262;2023-04-07T07:41:24;101911.56;;;4.81;100.00
28167;BME280;15455;53.376;-6.262;2023-04-07T07:44:10;101916.00;;;5.06;100.00
28167;BME280;15455;53.376;-6.262;2023-04-07T07:46:55;101919.41;;;5.28;100.00
28167;BME280;15455;53.376;-6.262;2023-04-07T07:49:41;101916.69;;;5.47;100.00
28167;BME280;15455;53.376;-6.262;2023-04-07T07:52:26;101915.03;;;5.72;100.00
28167;BME280;15455;53.376;-6.262;2023-04-07T07:55:11;101913.88;;;5.88;100.00
28167;BME280;15455;53.376;-6.262;2023-04-07T07:57:57;101923.31;;;6.10;100.00
28167;BME280;15455;53.376;-6.262;2023-04-07T08:00:42;101925.69;;;6.30;100.00
28167;BME280;15455;53.376;-6.262;2023-04-07T08:03:28;101922.94;;;6.51;100.00
28167;BME280;15455;53.376;-6.262;2023-04-07T08:06:14;101926.97;;;6.68;100.00
28167;BME280;15455;53.376;-6.262;2023-04-07T08:09:00;101928.38;;;6.86;100.00
28167;BME280;15455;53.376;-6.262;2023-04-07T08:11:46;101926.28;;;7.01;100.00
28167;BME280;15455;53.376;-6.262;2023-04-07T08:14:35;101924.31;;;7.21;100.00
28167;BME280;15455;53.376;-6.262;2023-04-07T08:17:21;101922.06;;;7.34;100.00
28167;BME280;15455;53.376;-6.262;2023-04-07T08:20:07;101921.53;;;7.44;100.00
28167;BME280;15455;53.376;-6.262;2023-04-07T08:22:54;101923.63;;;7.57;100.00
28167;BME280;15455;53.376;-6.262;2023-04-07T08:25:40;101920.59;;;7.72;100.00
28167;BME280;15455;53.376;-6.262;2023-04-07T08:28:25;101911.56;;;7.91;100.00
28167;BME280;15455;53.376;-6.262;2023-04-07T08:31:11;101915.44;;;8.06;100.00
28167;BME280;15455;53.376;-6.262;2023-04-07T08:33:57;101915.00;;;8.22;100.00
28167;BME280;15455;53.376;-6.262;2023-04-07T08:36:43;101909.19;;;8.32;100.00
28167;BME280;15455;53.376;-6.262;2023-04-07T08:39:28;101896.31;;;8.37;100.00
28167;BME280;15455;53.376;-6.262;2023-04-07T08:42:14;101895.72;;;8.47;100.00
28167;BME280;15455;53.376;-6.262;2023-04-07T08:45:04;101888.16;;;8.57;100.00
28167;BME280;15455;53.376;-6.262;2023-04-07T08:47:54;101886.78;;;8.71;100.00
28167;BME280;15455;53.376;-6.262;2023-04-07T08:50:43;101877.38;;;8.79;100.00
28167;BME280;15455;53.376;-6.262;2023-04-07T08:53:38;101873.34;;;8.92;100.00
28167;BME280;15455;53.376;-6.262;2023-04-07T08:56:26;101854.69;;;9.12;100.00
28167;BME280;15455;53.376;-6.262;2023-04-07T08:59:14;101847.28;;;9.32;100.00
28167;BME280;15455;53.376;-6.262;2023-04-07T09:02:00;101837.22;;;9.50;100.00
28167;BME280;15455;53.376;-6.262;2023-04-07T09:04:47;101832.38;;;9.70;100.00
28167;BME280;15455;53.376;-6.262;2023-04-07T09:07:34;101828.31;;;9.86;100.00
28167;BME280;15455;53.376;-6.262;2023-04-07T09:10:20;101826.94;;;10.05;100.00
28167;BME280;15455;53.376;-6.262;2023-04-07T09:13:05;101824.47;;;10.13;100.00
28167;BME280;15455;53.376;-6.262;2023-04-07T09:15:51;101815.00;;;10.20;100.00
28167;BME280;15455;53.376;-6.262;2023-04-07T09:18:36;101818.63;;;10.30;100.00
28167;BME280;15455;53.376;-6.262;2023-04-07T09:21:22;101817.09;;;10.41;100.00
28167;BME280;15455;53.376;-6.262;2023-04-07T09:24:26;101811.28;;;10.57;100.00
28167;BME280;15455;53.376;-6.262;2023-04-07T09:27:14;101806.22;;;10.71;100.00
28167;BME280;15455;53.376;-6.262;2023-04-07T09:30:10;101806.41;;;10.82;100.00
28167;BME280;15455;53.376;-6.262;2023-04-07T09:32:58;101813.47;;;10.89;100.00
28167;BME280;15455;53.376;-6.262;2023-04-07T09:35:53;101805.69;;;10.95;100.00
28167;BME280;15455;53.376;-6.262;2023-04-07T09:38:40;101801.44;;;11.02;100.00
28167;BME280;15455;53.376;-6.262;2023-04-07T09:41:26;101803.31;;;11.14;100.00
28167;BME280;15455;53.376;-6.262;2023-04-07T09:44:12;101795.50;;;11.16;100.00
28167;BME280;15455;53.376;-6.262;2023-04-07T09:46:58;101795.41;;;11.06;100.00
28167;BME280;15455;53.376;-6.262;2023-04-07T09:49:53;101798.78;;;10.99;100.00
28167;BME280;15455;53.376;-6.262;2023-04-07T09:52:51;101798.78;;;10.99;100.00
28167;BME280;15455;53.376;-6.262;2023-04-07T09:55:38;101799.75;;;11.09;100.00
28167;BME280;15455;53.376;-6.262;2023-04-07T09:58:24;101806.69;;;11.04;100.00
28167;BME280;15455;53.376;-6.262;2023-04-07T10:01:10;101794.53;;;11.09;100.00
28167;BME280;15455;53.376;-6.262;2023-04-07T10:03:55;101802.38;;;11.09;100.00
28167;BME280;15455;53.376;-6.262;2023-04-07T10:06:42;101798.06;;;11.11;100.00
28167;BME280;15455;53.376;-6.262;2023-04-07T10:09:29;101797.13;;;11.07;100.00
28167;BME280;15455;53.376;-6.262;2023-04-07T10:12:15;101794.53;;;11.10;100.00
28167;BME280;15455;53.376;-6.262;2023-04-07T10:15:00;101801.53;;;11.10;100.00
28167;BME280;15455;53.376;-6.262;2023-04-07T10:17:46;101801.50;;;11.08;100.00
28167;BME280;15455;53.376;-6.262;2023-04-07T10:20:33;101790.94;;;10.99;100.00
28167;BME280;15455;53.376;-6.262;2023-04-07T10:23:33;101799.63;;;10.97;100.00
28167;BME280;15455;53.376;-6.262;2023-04-07T10:26:25;101797.00;;;10.97;100.00
28167;BME280;15455;53.376;-6.262;2023-04-07T10:29:13;101802.31;;;11.03;100.00
28167;BME280;15455;53.376;-6.262;2023-04-07T10:32:01;101801.47;;;11.05;100.00
28167;BME280;15455;53.376;-6.262;2023-04-07T10:37:37;101797.97;;;11.05;100.00
28167;BME280;15455;53.376;-6.262;2023-04-07T10:43:11;101803.25;;;11.08;100.00
28167;BME280;15455;53.376;-6.262;2023-04-07T10:45:58;101804.19;;;11.15;100.00
28167;BME280;15455;53.376;-6.262;2023-04-07T10:49:07;101804.19;;;11.16;100.00
28167;BME280;15455;53.376;-6.262;2023-04-07T10:58:23;101809.03;;;10.84;100.00
28167;BME280;15455;53.376;-6.262;2023-04-07T11:03:56;101807.47;;;10.98;100.00
28167;BME280;15455;53.376;-6.262;2023-04-07T11:06:46;101813.81;;;11.19;100.00
28167;BME280;15455;53.376;-6.262;2023-04-07T11:09:32;101806.81;;;11.16;100.00
28167;BME280;15455;53.376;-6.262;2023-04-07T11:12:22;101808.47;;;11.08;100.00
28167;BME280;15455;53.376;-6.262;2023-04-07T11:15:20;101814.66;;;11.18;100.00
28167;BME280;15455;53.376;-6.262;2023-04-07T11:18:18;101817.47;;;11.32;100.00
28167;BME280;15455;53.376;-6.262;2023-04-07T11:21:04;101808.75;;;11.33;100.00
28167;BME280;15455;53.376;-6.262;2023-04-07T11:23:51;101807.94;;;11.37;100.00
28167;BME280;15455;53.376;-6.262;2023-04-07T11:26:38;101801.78;;;11.33;100.00
28167;BME280;15455;53.376;-6.262;2023-04-07T11:29:28;101807.06;;;11.38;100.00
28167;BME280;15455;53.376;-6.262;2023-04-07T11:32:13;101806.25;;;11.43;100.00
28167;BME280;15455;53.376;-6.262;2023-04-07T11:34:59;101804.66;;;11.58;100.00
28167;BME280;15455;53.376;-6.262;2023-04-07T11:37:44;101796.97;;;11.70;100.00
28167;BME280;15455;53.376;-6.262;2023-04-07T11:40:34;101795.13;;;11.60;100.00
28167;BME280;15455;53.376;-6.262;2023-04-07T11:43:23;101805.66;;;11.68;100.00
28167;BME280;15455;53.376;-6.262;2023-04-07T11:46:16;101798.75;;;11.74;100.00
28167;BME280;15455;53.376;-6.262;2023-04-07T11:49:10;101779.59;;;11.80;100.00
28167;BME280;15455;53.376;-6.262;2023-04-07T11:52:01;101788.47;;;11.94;100.00
28167;BME280;15455;53.376;-6.262;2023-04-07T11:54:48;101787.72;;;12.06;100.00
28167;BME280;15455;53.376;-6.262;2023-04-07T11:57:36;101787.81;;;12.20;100.00
28167;BME280;15455;53.376;-6.262;2023-04-07T12:00:22;101783.63;;;12.44;100.00
28167;BME280;15455;53.376;-6.262;2023-04-07T12:03:09;101782.00;;;12.64;100.00
28167;BME280;15455;53.376;-6.262;2023-04-07T12:05:56;101780.38;;;12.90;100.00
28167;BME280;15455;53.376;-6.262;2023-04-07T12:08:42;101772.59;;;13.07;100.00
28167;BME280;15455;53.376;-6.262;2023-04-07T12:11:29;101763.94;;;13.32;100.00
28167;BME280;15455;53.376;-6.262;2023-04-07T12:14:14;101764.88;;;13.58;100.00
28167;BME280;15455;53.376;-6.262;2023-04-07T12:17:00;101766.69;;;13.89;100.00
28167;BME280;15455;53.376;-6.262;2023-04-07T12:19:47;101752.66;;;14.12;100.00
28167;BME280;15455;53.376;-6.262;2023-04-07T12:22:33;101756.16;;;14.34;100.00
28167;BME280;15455;53.376;-6.262;2023-04-07T12:25:18;101757.84;;;14.52;100.00
28167;BME280;15455;53.376;-6.262;2023-04-07T12:28:04;101759.53;;;14.81;100.00
28167;BME280;15455;53.376;-6.262;2023-04-07T12:30:50;101757.72;;;14.96;100.00
28167;BME280;15455;53.376;-6.262;2023-04-07T12:33:35;101754.09;;;15.21;100.00
28167;BME280;15455;53.376;-6.262;2023-04-07T12:36:20;101760.13;;;15.37;100.00
28167;BME280;15455;53.376;-6.262;2023-04-07T12:39:06;101757.53;;;15.36;100.00
28167;BME280;15455;53.376;-6.262;2023-04-07T12:41:51;101752.44;;;15.02;100.00
28167;BME280;15455;53.376;-6.262;2023-04-07T12:44:37;101743.78;;;14.75;100.00
28167;BME280;15455;53.376;-6.262;2023-04-07T12:47:23;101751.69;;;14.67;100.00
28167;BME280;15455;53.376;-6.262;2023-04-07T12:50:09;101749.00;;;14.86;100.00
28167;BME280;15455;53.376;-6.262;2023-04-07T12:52:54;101746.25;;;15.10;100.00
28167;BME280;15455;53.376;-6.262;2023-04-07T12:55:40;101745.38;;;15.11;100.00
28167;BME280;15455;53.376;-6.262;2023-04-07T12:58:26;101743.56;;;15.24;100.00
28167;BME280;15455;53.376;-6.262;2023-04-07T13:01:12;101745.28;;;15.30;100.00
28167;BME280;15455;53.376;-6.262;2023-04-07T13:03:58;101740.69;;;15.57;100.00
28167;BME280;15455;53.376;-6.262;2023-04-07T13:06:44;101738.72;;;15.88;100.00
28167;BME280;15455;53.376;-6.262;2023-04-07T13:09:29;101747.38;;;16.03;100.00
28167;BME280;15455;53.376;-6.262;2023-04-07T13:12:15;101738.56;;;16.08;100.00
28167;BME280;15455;53.376;-6.262;2023-04-07T13:15:00;101738.78;;;15.82;100.00
28167;BME280;15455;53.376;-6.262;2023-04-07T13:17:46;101739.00;;;15.50;100.00
28167;BME280;15455;53.376;-6.262;2023-04-07T13:20:32;101746.25;;;15.10;100.00
28167;BME280;15455;53.376;-6.262;2023-04-07T13:23:17;101729.75;;;14.77;100.00
28167;BME280;15455;53.376;-6.262;2023-04-07T13:26:03;101735.09;;;14.42;100.00
28167;BME280;15455;53.376;-6.262;2023-04-07T13:28:48;101733.38;;;14.24;100.00
28167;BME280;15455;53.376;-6.262;2023-04-07T13:31:34;101729.03;;;14.07;100.00
28167;BME280;15455;53.376;-6.262;2023-04-07T13:34:19;101731.66;;;13.94;100.00
28167;BME280;15455;53.376;-6.262;2023-04-07T13:37:05;101729.94;;;13.79;100.00
28167;BME280;15455;53.376;-6.262;2023-04-07T13:39:51;101735.19;;;13.74;100.00
28167;BME280;15455;53.376;-6.262;2023-04-07T13:42:37;101726.44;;;13.64;100.00
28167;BME280;15455;53.376;-6.262;2023-04-07T13:45:23;101729.03;;;13.72;100.00
28167;BME280;15455;53.376;-6.262;2023-04-07T13:48:08;101720.28;;;13.96;100.00
28167;BME280;15455;53.376;-6.262;2023-04-07T13:50:54;101713.97;;;14.77;100.00
28167;BME280;15455;53.376;-6.262;2023-04-07T13:53:40;101717.88;;;15.60;100.00
28167;BME280;15455;53.376;-6.262;2023-04-07T13:56:25;101720.38;;;15.77;100.00
28167;BME280;15455;53.376;-6.262;2023-04-07T13:59:11;101718.72;;;15.64;100.00
28167;BME280;15455;53.376;-6.262;2023-04-07T14:01:56;101708.44;;;15.32;100.00
28167;BME280;15455;53.376;-6.262;2023-04-07T14:04:42;101719.97;;;15.07;100.00
28167;BME280;15455;53.376;-6.262;2023-04-07T14:07:28;101706.97;;;14.83;100.00
28167;BME280;15455;53.376;-6.262;2023-04-07T14:10:14;101706.19;;;14.48;100.00
28167;BME280;15455;53.376;-6.262;2023-04-07T14:13:02;101710.66;;;14.23;100.00
28167;BME280;15455;53.376;-6.262;2023-04-07T14:15:49;101711.56;;;13.99;100.00
28167;BME280;15455;53.376;-6.262;2023-04-07T14:18:37;101708.94;;;13.71;100.00
28167;BME280;15455;53.376;-6.262;2023-04-07T14:21:23;101704.56;;;13.88;100.00
28167;BME280;15455;53.376;-6.262;2023-04-07T14:24:08;101709.78;;;14.01;100.00
28167;BME280;15455;53.376;-6.262;2023-04-07T14:26:54;101698.41;;;14.13;100.00
28167;BME280;15455;53.376;-6.262;2023-04-07T14:29:40;101702.72;;;14.38;100.00
28167;BME280;15455;53.376;-6.262;2023-04-07T14:32:26;101701.75;;;14.69;100.00
28167;BME280;15455;53.376;-6.262;2023-04-07T14:35:14;101705.22;;;14.77;100.00
28167;BME280;15455;53.376;-6.262;2023-04-07T14:37:59;101697.41;;;14.69;100.00
28167;BME280;15455;53.376;-6.262;2023-04-07T14:40:45;101707.81;;;14.83;100.00